sensor_id;sensor_type;location;lat;lon;timestamp;temperature;humidity
17266;DHT22;8749;47.076;15.412;2022-10-13T00:00:32;16.40;99.90
17266;DHT22;8749;47.076;15.412;2022-10-13T00:02:59;16.40;99.90
17266;DHT22;8749;47.076;15.412;2022-10-13T00:05:28;16.30;99.90
17266;DHT22;8749;47.076;15.412;2022-10-13T00:07:56;16.30;99.90
17266;DHT22;8749;47.076;15.412;2022-10-13T00:10:24;16.20;99.90
17266;DHT22;8749;47.076;15.412;2022-10-13T00:12:51;16.20;99.90
17266;DHT22;8749;47.076;15.412;2022-10-13T00:15:18;16.20;99.90
17266;DHT22;8749;47.076;15.412;2022-10-13T00:17:45;16.20;99.90
17266;DHT22;8749;47.076;15.412;2022-10-13T00:20:12;16.20;99.90
17266;DHT22;8749;47.076;15.412;2022-10-13T00:22:40;16.10;99.90
17266;DHT22;8749;47.076;15.412;2022-10-13T00:25:08;16.10;99.90
17266;DHT22;8749;47.076;15.412;2022-10-13T00:27:35;16.10;99.90
17266;DHT22;8749;47.076;15.412;2022-10-13T00:30:02;16.10;99.90
17266;DHT22;8749;47.076;15.412;2022-10-13T00:32:29;16.00;99.90
17266;DHT22;8749;47.076;15.412;2022-10-13T00:34:56;16.00;99.90
17266;DHT22;8749;47.076;15.412;2022-10-13T00:37:23;15.90;99.90
17266;DHT22;8749;47.076;15.412;2022-10-13T00:39:51;15.90;99.90
17266;DHT22;8749;47.076;15.412;2022-10-13T00:42:18;15.90;99.90
17266;DHT22;8749;47.076;15.412;2022-10-13T00:44:59;15.80;99.90
17266;DHT22;8749;47.076;15.412;2022-10-13T00:47:29;15.80;99.90
17266;DHT22;8749;47.076;15.412;2022-10-13T00:49:56;15.80;99.90
17266;DHT22;8749;47.076;15.412;2022-10-13T00:52:25;15.80;99.90
17266;DHT22;8749;47.076;15.412;2022-10-13T00:54:54;15.80;99.90
17266;DHT22;8749;47.076;15.412;2022-10-13T00:57:22;15.70;99.90
17266;DHT22;8749;47.076;15.412;2022-10-13T00:59:49;15.70;99.90
17266;DHT22;8749;47.076;15.412;2022-10-13T01:02:17;15.60;99.90
17266;DHT22;8749;47.076;15.412;2022-10-13T01:04:46;15.60;99.90
17266;DHT22;8749;47.076;15.412;2022-10-13T01:07:14;15.60;99.90
17266;DHT22;8749;47.076;15.412;2022-10-13T01:09:41;15.60;99.90
17266;DHT22;8749;47.076;15.412;2022-10-13T01:12:20;15.50;99.90
17266;DHT22;8749;47.076;15.412;2022-10-13T01:14:53;15.50;99.90
17266;DHT22;8749;47.076;15.412;2022-10-13T01:17:29;15.50;99.90
17266;DHT22;8749;47.076;15.412;2022-10-13T01:20:23;15.50;99.90
17266;DHT22;8749;47.076;15.412;2022-10-13T01:23:16;15.50;99.90
17266;DHT22;8749;47.076;15.412;2022-10-13T01:25:56;15.40;99.90
17266;DHT22;8749;47.076;15.412;2022-10-13T01:28:39;15.40;99.90
17266;DHT22;8749;47.076;15.412;2022-10-13T01:31:18;15.40;99.90
17266;DHT22;8749;47.076;15.412;2022-10-13T01:33:51;15.30;99.90
17266;DHT22;8749;47.076;15.412;2022-10-13T01:36:26;15.30;99.90
17266;DHT22;8749;47.076;15.412;2022-10-13T01:39:02;15.20;99.90
17266;DHT22;8749;47.076;15.412;2022-10-13T01:41:35;15.20;99.90
17266;DHT22;8749;47.076;15.412;2022-10-13T01:44:10;15.10;99.90
17266;DHT22;8749;47.076;15.412;2022-10-13T01:46:43;15.10;99.90
17266;DHT22;8749;47.076;15.412;2022-10-13T01:49:15;15.10;99.90
17266;DHT22;8749;47.076;15.412;2022-10-13T01:51:43;15.10;99.90
17266;DHT22;8749;47.076;15.412;2022-10-13T01:54:11;15.10;99.90
17266;DHT22;8749;47.076;15.412;2022-10-13T01:56:38;15.00;99.90
17266;DHT22;8749;47.076;15.412;2022-10-13T01:59:09;15.00;99.90
17266;DHT22;8749;47.076;15.412;2022-10-13T02:01:46;15.00;99.90
17266;DHT22;8749;47.076;15.412;2022-10-13T02:04:25;15.00;99.90
17266;DHT22;8749;47.076;15.412;2022-10-13T02:07:00;15.00;99.90
17266;DHT22;8749;47.076;15.412;2022-10-13T02:09:33;15.00;99.90
17266;DHT22;8749;47.076;15.412;2022-10-13T02:12:07;15.00;99.90
17266;DHT22;8749;47.076;15.412;2022-10-13T02:14:37;15.00;99.90
17266;DHT22;8749;47.076;15.412;2022-10-13T02:17:08;14.90;99.90
17266;DHT22;8749;47.076;15.412;2022-10-13T02:19:37;14.90;99.90
17266;DHT22;8749;47.076;15.412;2022-10-13T02:22:05;14.90;99.90
17266;DHT22;8749;47.076;15.412;2022-10-13T02:24:34;14.80;99.90
17266;DHT22;8749;47.076;15.412;2022-10-13T02:27:02;14.70;99.90
17266;DHT22;8749;47.076;15.412;2022-10-13T02:29:30;14.80;99.90
17266;DHT22;8749;47.076;15.412;2022-10-13T02:31:57;14.70;99.90
17266;DHT22;8749;47.076;15.412;2022-10-13T02:34:26;14.70;99.90
17266;DHT22;8749;47.076;15.412;2022-10-13T02:36:53;14.70;99.90
17266;DHT22;8749;47.076;15.412;2022-10-13T02:39:20;14.70;99.90
17266;DHT22;8749;47.076;15.412;2022-10-13T02:41:47;14.70;99.90
17266;DHT22;8749;47.076;15.412;2022-10-13T02:44:13;14.80;99.90
17266;DHT22;8749;47.076;15.412;2022-10-13T02:46:40;14.80;99.90
17266;DHT22;8749;47.076;15.412;2022-10-13T02:49:08;14.80;99.90
17266;DHT22;8749;47.076;15.412;2022-10-13T02:51:37;14.70;99.90
17266;DHT22;8749;47.076;15.412;2022-10-13T02:54:04;14.60;99.90
17266;DHT22;8749;47.076;15.412;2022-10-13T02:56:31;14.70;99.90
17266;DHT22;8749;47.076;15.412;2022-10-13T02:58:57;14.70;99.90
17266;DHT22;8749;47.076;15.412;2022-10-13T03:01:24;14.60;99.90
17266;DHT22;8749;47.076;15.412;2022-10-13T03:03:51;14.60;99.90
17266;DHT22;8749;47.076;15.412;2022-10-13T03:06:18;14.60;99.90
17266;DHT22;8749;47.076;15.412;2022-10-13T03:08:47;14.60;99.90
17266;DHT22;8749;47.076;15.412;2022-10-13T03:11:14;14.60;99.90
17266;DHT22;8749;47.076;15.412;2022-10-13T03:13:41;14.50;99.90
17266;DHT22;8749;47.076;15.412;2022-10-13T03:16:08;14.50;99.90
17266;DHT22;8749;47.076;15.412;2022-10-13T03:18:34;14.50;99.90
17266;DHT22;8749;47.076;15.412;2022-10-13T03:21:04;14.50;99.90
17266;DHT22;8749;47.076;15.412;2022-10-13T03:23:31;14.40;99.90
17266;DHT22;8749;47.076;15.412;2022-10-13T03:26:00;14.40;99.90
17266;DHT22;8749;47.076;15.412;2022-10-13T03:28:27;14.30;99.90
17266;DHT22;8749;47.076;15.412;2022-10-13T03:31:00;14.30;99.90
17266;DHT22;8749;47.076;15.412;2022-10-13T03:33:27;14.30;99.90
17266;DHT22;8749;47.076;15.412;2022-10-13T03:35:57;14.30;99.90
17266;DHT22;8749;47.076;15.412;2022-10-13T03:38:24;14.30;99.90
17266;DHT22;8749;47.076;15.412;2022-10-13T03:40:51;14.30;99.90
17266;DHT22;8749;47.076;15.412;2022-10-13T03:43:19;14.30;99.90
17266;DHT22;8749;47.076;15.412;2022-10-13T03:45:53;14.30;99.90
17266;DHT22;8749;47.076;15.412;2022-10-13T03:48:20;14.30;99.90
17266;DHT22;8749;47.076;15.412;2022-10-13T03:50:47;14.20;99.90
17266;DHT22;8749;47.076;15.412;2022-10-13T03:53:14;14.20;99.90
17266;DHT22;8749;47.076;15.412;2022-10-13T03:55:41;14.20;99.90
17266;DHT22;8749;47.076;15.412;2022-10-13T03:58:08;14.20;99.90
17266;DHT22;8749;47.076;15.412;2022-10-13T04:00:36;14.10;99.90
17266;DHT22;8749;47.076;15.412;2022-10-13T04:03:03;14.10;99.90
17266;DHT22;8749;47.076;15.412;2022-10-13T04:05:33;14.10;99.90
17266;DHT22;8749;47.076;15.412;2022-10-13T04:08:00;14.10;99.90
17266;DHT22;8749;47.076;15.412;2022-10-13T04:10:27;14.10;99.90
17266;DHT22;8749;47.076;15.412;2022-10-13T04:12:54;14.10;99.90
17266;DHT22;8749;47.076;15.412;2022-10-13T04:15:21;14.10;99.90
17266;DHT22;8749;47.076;15.412;2022-10-13T04:17:49;14.00;99.90
17266;DHT22;8749;47.076;15.412;2022-10-13T04:20:16;14.00;99.90
17266;DHT22;8749;47.076;15.412;2022-10-13T04:22:43;14.00;99.90
17266;DHT22;8749;47.076;15.412;2022-10-13T04:25:10;14.10;99.90
17266;DHT22;8749;47.076;15.412;2022-10-13T04:27:37;14.10;99.90
17266;DHT22;8749;47.076;15.412;2022-10-13T04:30:06;14.00;99.90
17266;DHT22;8749;47.076;15.412;2022-10-13T04:32:33;14.00;99.90
17266;DHT22;8749;47.076;15.412;2022-10-13T04:35:01;14.00;99.90
17266;DHT22;8749;47.076;15.412;2022-10-13T04:37:28;14.00;99.90
17266;DHT22;8749;47.076;15.412;2022-10-13T04:39:55;13.90;99.90
17266;DHT22;8749;47.076;15.412;2022-10-13T04:42:22;13.90;99.90
17266;DHT22;8749;47.076;15.412;2022-10-13T04:44:49;13.90;99.90
17266;DHT22;8749;47.076;15.412;2022-10-13T04:47:16;13.80;99.90
17266;DHT22;8749;47.076;15.412;2022-10-13T04:49:43;13.70;99.90
17266;DHT22;8749;47.076;15.412;2022-10-13T04:52:11;13.70;99.90
17266;DHT22;8749;47.076;15.412;2022-10-13T04:54:38;13.70;99.90
17266;DHT22;8749;47.076;15.412;2022-10-13T04:57:06;13.70;99.90
17266;DHT22;8749;47.076;15.412;2022-10-13T04:59:33;13.60;99.90
17266;DHT22;8749;47.076;15.412;2022-10-13T05:02:00;13.60;99.90
17266;DHT22;8749;47.076;15.412;2022-10-13T05:04:28;13.60;99.90
17266;DHT22;8749;47.076;15.412;2022-10-13T05:06:55;13.60;99.90
17266;DHT22;8749;47.076;15.412;2022-10-13T05:09:23;13.60;99.90
17266;DHT22;8749;47.076;15.412;2022-10-13T05:11:50;13.70;99.90
17266;DHT22;8749;47.076;15.412;2022-10-13T05:14:19;13.70;99.90
17266;DHT22;8749;47.076;15.412;2022-10-13T05:16:46;13.60;99.90
17266;DHT22;8749;47.076;15.412;2022-10-13T05:19:14;13.60;99.90
17266;DHT22;8749;47.076;15.412;2022-10-13T05:21:41;13.70;99.90
17266;DHT22;8749;47.076;15.412;2022-10-13T05:24:08;13.70;99.90
17266;DHT22;8749;47.076;15.412;2022-10-13T05:26:39;13.70;99.90
17266;DHT22;8749;47.076;15.412;2022-10-13T05:29:06;13.60;99.90
17266;DHT22;8749;47.076;15.412;2022-10-13T05:31:34;13.60;99.90
17266;DHT22;8749;47.076;15.412;2022-10-13T05:34:01;13.60;99.90
17266;DHT22;8749;47.076;15.412;2022-10-13T05:36:30;13.60;99.90
17266;DHT22;8749;47.076;15.412;2022-10-13T05:39:00;13.60;99.90
17266;DHT22;8749;47.076;15.412;2022-10-13T05:41:28;13.60;99.90
17266;DHT22;8749;47.076;15.412;2022-10-13T05:43:58;13.70;99.90
17266;DHT22;8749;47.076;15.412;2022-10-13T05:46:26;13.70;99.90
17266;DHT22;8749;47.076;15.412;2022-10-13T05:48:53;13.80;99.90
17266;DHT22;8749;47.076;15.412;2022-10-13T05:51:23;13.80;99.90
17266;DHT22;8749;47.076;15.412;2022-10-13T05:53:53;13.80;99.90
17266;DHT22;8749;47.076;15.412;2022-10-13T05:56:25;13.80;99.90
17266;DHT22;8749;47.076;15.412;2022-10-13T05:58:57;13.80;99.90
17266;DHT22;8749;47.076;15.412;2022-10-13T06:01:27;13.80;99.90
17266;DHT22;8749;47.076;15.412;2022-10-13T06:03:59;13.90;99.90
17266;DHT22;8749;47.076;15.412;2022-10-13T06:06:27;13.90;99.90
17266;DHT22;8749;47.076;15.412;2022-10-13T06:08:54;13.90;99.90
17266;DHT22;8749;47.076;15.412;2022-10-13T06:11:20;13.90;99.90
17266;DHT22;8749;47.076;15.412;2022-10-13T06:13:47;14.00;99.90
17266;DHT22;8749;47.076;15.412;2022-10-13T06:16:16;14.00;99.90
17266;DHT22;8749;47.076;15.412;2022-10-13T06:18:43;14.00;99.90
17266;DHT22;8749;47.076;15.412;2022-10-13T06:21:10;14.00;99.90
17266;DHT22;8749;47.076;15.412;2022-10-13T06:23:38;14.10;99.90
17266;DHT22;8749;47.076;15.412;2022-10-13T06:26:06;14.20;99.90
17266;DHT22;8749;47.076;15.412;2022-10-13T06:28:33;14.30;99.90
17266;DHT22;8749;47.076;15.412;2022-10-13T06:31:02;14.30;99.90
17266;DHT22;8749;47.076;15.412;2022-10-13T06:33:31;14.30;99.90
17266;DHT22;8749;47.076;15.412;2022-10-13T06:36:00;14.40;99.90
17266;DHT22;8749;47.076;15.412;2022-10-13T06:38:27;14.40;99.90
17266;DHT22;8749;47.076;15.412;2022-10-13T06:40:58;14.50;99.90
17266;DHT22;8749;47.076;15.412;2022-10-13T06:43:25;14.40;99.90
17266;DHT22;8749;47.076;15.412;2022-10-13T06:45:52;14.50;99.90
17266;DHT22;8749;47.076;15.412;2022-10-13T06:48:23;14.60;99.90
17266;DHT22;8749;47.076;15.412;2022-10-13T06:50:51;14.60;99.90
17266;DHT22;8749;47.076;15.412;2022-10-13T06:53:18;14.70;99.90
17266;DHT22;8749;47.076;15.412;2022-10-13T06:55:46;14.80;99.90
17266;DHT22;8749;47.076;15.412;2022-10-13T06:58:13;15.00;99.90
17266;DHT22;8749;47.076;15.412;2022-10-13T07:00:40;15.00;99.90
17266;DHT22;8749;47.076;15.412;2022-10-13T07:03:07;15.10;99.90
17266;DHT22;8749;47.076;15.412;2022-10-13T07:05:34;15.10;99.90
17266;DHT22;8749;47.076;15.412;2022-10-13T07:08:03;15.20;99.90
17266;DHT22;8749;47.076;15.412;2022-10-13T07:10:30;15.20;99.90
17266;DHT22;8749;47.076;15.412;2022-10-13T07:12:56;15.30;99.90
17266;DHT22;8749;47.076;15.412;2022-10-13T07:15:23;15.20;99.90
17266;DHT22;8749;47.076;15.412;2022-10-13T07:17:51;15.30;99.90
17266;DHT22;8749;47.076;15.412;2022-10-13T07:20:18;15.40;99.90
17266;DHT22;8749;47.076;15.412;2022-10-13T07:22:46;15.40;99.90
17266;DHT22;8749;47.076;15.412;2022-10-13T07:25:15;15.50;99.90
17266;DHT22;8749;47.076;15.412;2022-10-13T07:27:42;15.50;99.90
17266;DHT22;8749;47.076;15.412;2022-10-13T07:30:10;15.60;99.90
17266;DHT22;8749;47.076;15.412;2022-10-13T07:32:38;15.60;99.90
17266;DHT22;8749;47.076;15.412;2022-10-13T07:35:07;15.70;99.90
17266;DHT22;8749;47.076;15.412;2022-10-13T07:37:34;15.70;99.90
17266;DHT22;8749;47.076;15.412;2022-10-13T07:40:02;15.70;99.90
17266;DHT22;8749;47.076;15.412;2022-10-13T07:42:31;15.80;99.90
17266;DHT22;8749;47.076;15.412;2022-10-13T07:44:58;15.80;99.90
17266;DHT22;8749;47.076;15.412;2022-10-13T07:47:25;15.90;99.90
17266;DHT22;8749;47.076;15.412;2022-10-13T07:49:52;15.90;99.90
17266;DHT22;8749;47.076;15.412;2022-10-13T07:52:20;16.00;99.90
17266;DHT22;8749;47.076;15.412;2022-10-13T07:54:47;16.10;99.90
17266;DHT22;8749;47.076;15.412;2022-10-13T07:57:15;16.10;99.90
17266;DHT22;8749;47.076;15.412;2022-10-13T07:59:44;16.20;99.90
17266;DHT22;8749;47.076;15.412;2022-10-13T08:02:11;16.30;99.90
17266;DHT22;8749;47.076;15.412;2022-10-13T08:04:38;16.30;99.90
17266;DHT22;8749;47.076;15.412;2022-10-13T08:07:05;16.30;99.90
17266;DHT22;8749;47.076;15.412;2022-10-13T08:09:33;16.40;99.90
17266;DHT22;8749;47.076;15.412;2022-10-13T08:12:00;16.50;99.90
17266;DHT22;8749;47.076;15.412;2022-10-13T08:14:27;16.50;99.90
17266;DHT22;8749;47.076;15.412;2022-10-13T08:16:55;16.60;99.90
17266;DHT22;8749;47.076;15.412;2022-10-13T08:19:23;16.60;99.90
17266;DHT22;8749;47.076;15.412;2022-10-13T08:21:51;16.70;99.90
17266;DHT22;8749;47.076;15.412;2022-10-13T08:24:18;16.70;99.90
17266;DHT22;8749;47.076;15.412;2022-10-13T08:26:47;16.80;99.90
17266;DHT22;8749;47.076;15.412;2022-10-13T08:29:15;16.80;99.90
17266;DHT22;8749;47.076;15.412;2022-10-13T08:31:42;16.90;99.90
17266;DHT22;8749;47.076;15.412;2022-10-13T08:34:11;16.80;99.90
17266;DHT22;8749;47.076;15.412;2022-10-13T08:36:39;16.90;99.90
17266;DHT22;8749;47.076;15.412;2022-10-13T08:39:06;16.90;99.90
17266;DHT22;8749;47.076;15.412;2022-10-13T08:41:37;17.00;99.90
17266;DHT22;8749;47.076;15.412;2022-10-13T08:44:09;17.00;99.90
17266;DHT22;8749;47.076;15.412;2022-10-13T08:46:47;17.00;99.90
17266;DHT22;8749;47.076;15.412;2022-10-13T08:49:16;17.00;99.90
17266;DHT22;8749;47.076;15.412;2022-10-13T08:51:45;17.10;99.90
17266;DHT22;8749;47.076;15.412;2022-10-13T08:54:14;17.20;99.90
17266;DHT22;8749;47.076;15.412;2022-10-13T08:56:42;17.30;99.90
17266;DHT22;8749;47.076;15.412;2022-10-13T08:59:15;17.30;99.90
17266;DHT22;8749;47.076;15.412;2022-10-13T09:01:44;17.30;99.90
17266;DHT22;8749;47.076;15.412;2022-10-13T09:04:27;17.40;99.90
17266;DHT22;8749;47.076;15.412;2022-10-13T09:07:01;17.50;99.90
17266;DHT22;8749;47.076;15.412;2022-10-13T09:09:28;17.50;99.90
17266;DHT22;8749;47.076;15.412;2022-10-13T09:11:57;17.50;99.90
17266;DHT22;8749;47.076;15.412;2022-10-13T09:14:26;17.60;99.90
17266;DHT22;8749;47.076;15.412;2022-10-13T09:16:55;17.60;99.90
17266;DHT22;8749;47.076;15.412;2022-10-13T09:19:26;17.70;99.90
17266;DHT22;8749;47.076;15.412;2022-10-13T09:21:54;17.80;99.90
17266;DHT22;8749;47.076;15.412;2022-10-13T09:24:23;17.80;99.90
17266;DHT22;8749;47.076;15.412;2022-10-13T09:27:03;17.80;99.90
17266;DHT22;8749;47.076;15.412;2022-10-13T09:29:30;17.90;99.90
17266;DHT22;8749;47.076;15.412;2022-10-13T09:32:14;18.00;99.90
17266;DHT22;8749;47.076;15.412;2022-10-13T09:34:42;18.00;99.90
17266;DHT22;8749;47.076;15.412;2022-10-13T09:37:17;18.00;99.90
17266;DHT22;8749;47.076;15.412;2022-10-13T09:39:45;18.00;99.90
17266;DHT22;8749;47.076;15.412;2022-10-13T09:42:21;18.10;99.90
17266;DHT22;8749;47.076;15.412;2022-10-13T09:44:56;18.20;99.90
17266;DHT22;8749;47.076;15.412;2022-10-13T09:47:24;18.30;99.90
17266;DHT22;8749;47.076;15.412;2022-10-13T09:50:14;18.30;99.90
17266;DHT22;8749;47.076;15.412;2022-10-13T09:52:44;18.40;99.90
17266;DHT22;8749;47.076;15.412;2022-10-13T09:55:27;18.40;99.90
17266;DHT22;8749;47.076;15.412;2022-10-13T09:57:56;18.50;99.90
17266;DHT22;8749;47.076;15.412;2022-10-13T10:00:26;18.60;99.90
17266;DHT22;8749;47.076;15.412;2022-10-13T10:02:56;18.60;99.90
17266;DHT22;8749;47.076;15.412;2022-10-13T10:05:27;18.70;99.90
17266;DHT22;8749;47.076;15.412;2022-10-13T10:07:59;18.70;99.90
17266;DHT22;8749;47.076;15.412;2022-10-13T10:10:31;18.80;99.90
17266;DHT22;8749;47.076;15.412;2022-10-13T10:12:59;18.80;99.90
17266;DHT22;8749;47.076;15.412;2022-10-13T10:15:34;18.90;99.90
17266;DHT22;8749;47.076;15.412;2022-10-13T10:18:06;18.90;99.90
17266;DHT22;8749;47.076;15.412;2022-10-13T10:20:47;18.90;99.90
17266;DHT22;8749;47.076;15.412;2022-10-13T10:23:23;19.00;99.90
17266;DHT22;8749;47.076;15.412;2022-10-13T10:25:58;19.00;99.90
17266;DHT22;8749;47.076;15.412;2022-10-13T10:31:34;19.20;99.90
17266;DHT22;8749;47.076;15.412;2022-10-13T10:34:12;19.40;99.90
17266;DHT22;8749;47.076;15.412;2022-10-13T10:36:51;19.40;99.90
17266;DHT22;8749;47.076;15.412;2022-10-13T10:39:29;19.50;99.90
17266;DHT22;8749;47.076;15.412;2022-10-13T10:42:02;19.70;99.90
17266;DHT22;8749;47.076;15.412;2022-10-13T10:44:34;19.80;99.90
17266;DHT22;8749;47.076;15.412;2022-10-13T10:47:06;19.90;99.90
17266;DHT22;8749;47.076;15.412;2022-10-13T10:49:34;20.00;99.90
17266;DHT22;8749;47.076;15.412;2022-10-13T10:52:08;20.00;99.90
17266;DHT22;8749;47.076;15.412;2022-10-13T10:54:41;20.00;99.90
17266;DHT22;8749;47.076;15.412;2022-10-13T10:57:15;20.00;99.90
17266;DHT22;8749;47.076;15.412;2022-10-13T10:59:55;20.20;99.90
17266;DHT22;8749;47.076;15.412;2022-10-13T11:02:40;20.40;99.90
17266;DHT22;8749;47.076;15.412;2022-10-13T11:05:09;20.60;99.90
17266;DHT22;8749;47.076;15.412;2022-10-13T11:07:59;20.70;99.90
17266;DHT22;8749;47.076;15.412;2022-10-13T11:10:26;20.80;99.90
17266;DHT22;8749;47.076;15.412;2022-10-13T11:13:24;20.90;99.90
17266;DHT22;8749;47.076;15.412;2022-10-13T11:15:51;21.10;99.90
17266;DHT22;8749;47.076;15.412;2022-10-13T11:22:11;21.40;99.90
17266;DHT22;8749;47.076;15.412;2022-10-13T11:24:48;21.50;99.90
17266;DHT22;8749;47.076;15.412;2022-10-13T11:27:38;21.70;99.90
17266;DHT22;8749;47.076;15.412;2022-10-13T11:30:40;21.80;99.90
17266;DHT22;8749;47.076;15.412;2022-10-13T11:36:47;22.20;99.90
17266;DHT22;8749;47.076;15.412;2022-10-13T11:39:36;22.50;99.90
17266;DHT22;8749;47.076;15.412;2022-10-13T11:45:02;22.80;99.90
17266;DHT22;8749;47.076;15.412;2022-10-13T11:47:53;22.80;99.90
17266;DHT22;8749;47.076;15.412;2022-10-13T11:50:28;23.00;99.90
17266;DHT22;8749;47.076;15.412;2022-10-13T11:53:14;23.20;99.90
17266;DHT22;8749;47.076;15.412;2022-10-13T11:55:46;23.50;99.90
17266;DHT22;8749;47.076;15.412;2022-10-13T11:58:18;23.60;99.90
17266;DHT22;8749;47.076;15.412;2022-10-13T12:00:53;23.70;99.90
17266;DHT22;8749;47.076;15.412;2022-10-13T12:03:22;23.90;99.90
17266;DHT22;8749;47.076;15.412;2022-10-13T12:05:49;24.20;99.90
17266;DHT22;8749;47.076;15.412;2022-10-13T12:08:18;24.50;99.90
17266;DHT22;8749;47.076;15.412;2022-10-13T12:10:51;24.60;99.90
17266;DHT22;8749;47.076;15.412;2022-10-13T12:13:25;24.70;99.90
17266;DHT22;8749;47.076;15.412;2022-10-13T12:15:58;25.10;99.90
17266;DHT22;8749;47.076;15.412;2022-10-13T12:18:29;25.20;99.90
17266;DHT22;8749;47.076;15.412;2022-10-13T12:21:00;25.30;99.90
17266;DHT22;8749;47.076;15.412;2022-10-13T12:23:30;25.60;99.90
17266;DHT22;8749;47.076;15.412;2022-10-13T12:25:58;25.90;99.90
17266;DHT22;8749;47.076;15.412;2022-10-13T12:28:28;26.10;99.90
17266;DHT22;8749;47.076;15.412;2022-10-13T12:30:57;26.40;99.80
17266;DHT22;8749;47.076;15.412;2022-10-13T12:33:28;26.60;98.80
17266;DHT22;8749;47.076;15.412;2022-10-13T12:36:10;26.80;97.80
17266;DHT22;8749;47.076;15.412;2022-10-13T12:38:38;26.80;97.10
17266;DHT22;8749;47.076;15.412;2022-10-13T12:41:08;26.90;96.70
17266;DHT22;8749;47.076;15.412;2022-10-13T12:43:37;27.20;96.30
17266;DHT22;8749;47.076;15.412;2022-10-13T12:46:04;27.50;96.70
17266;DHT22;8749;47.076;15.412;2022-10-13T12:48:36;29.10;99.90
17266;DHT22;8749;47.076;15.412;2022-10-13T12:51:25;29.60;99.90
17266;DHT22;8749;47.076;15.412;2022-10-13T12:53:56;29.90;91.80
17266;DHT22;8749;47.076;15.412;2022-10-13T12:56:28;29.90;91.10
17266;DHT22;8749;47.076;15.412;2022-10-13T12:59:00;29.60;90.50
17266;DHT22;8749;47.076;15.412;2022-10-13T13:01:31;29.40;90.30
17266;DHT22;8749;47.076;15.412;2022-10-13T13:04:01;29.10;90.00
17266;DHT22;8749;47.076;15.412;2022-10-13T13:06:53;28.80;90.30
17266;DHT22;8749;47.076;15.412;2022-10-13T13:09:23;28.50;92.20
17266;DHT22;8749;47.076;15.412;2022-10-13T13:12:26;28.40;90.50
17266;DHT22;8749;47.076;15.412;2022-10-13T13:14:57;28.00;91.40
17266;DHT22;8749;47.076;15.412;2022-10-13T13:20:21;28.30;99.90
17266;DHT22;8749;47.076;15.412;2022-10-13T13:22:51;28.60;90.90
17266;DHT22;8749;47.076;15.412;2022-10-13T13:25:20;29.00;88.80
17266;DHT22;8749;47.076;15.412;2022-10-13T13:27:50;29.40;88.10
17266;DHT22;8749;47.076;15.412;2022-10-13T13:30:22;29.80;86.20
17266;DHT22;8749;47.076;15.412;2022-10-13T13:32:50;30.10;84.80
17266;DHT22;8749;47.076;15.412;2022-10-13T13:35:19;30.70;82.80
17266;DHT22;8749;47.076;15.412;2022-10-13T13:37:48;31.70;81.70
17266;DHT22;8749;47.076;15.412;2022-10-13T13:40:19;33.70;84.40
17266;DHT22;8749;47.076;15.412;2022-10-13T13:42:48;35.60;74.40
17266;DHT22;8749;47.076;15.412;2022-10-13T13:45:17;37.00;67.40
17266;DHT22;8749;47.076;15.412;2022-10-13T13:47:48;37.10;64.30
17266;DHT22;8749;47.076;15.412;2022-10-13T13:50:16;38.30;62.20
17266;DHT22;8749;47.076;15.412;2022-10-13T13:52:46;38.90;58.80
17266;DHT22;8749;47.076;15.412;2022-10-13T13:55:14;39.60;57.90
17266;DHT22;8749;47.076;15.412;2022-10-13T13:57:41;40.40;56.20
17266;DHT22;8749;47.076;15.412;2022-10-13T14:00:10;41.30;53.00
17266;DHT22;8749;47.076;15.412;2022-10-13T14:02:41;41.40;53.30
17266;DHT22;8749;47.076;15.412;2022-10-13T14:05:11;42.00;51.50
17266;DHT22;8749;47.076;15.412;2022-10-13T14:07:38;41.90;48.20
17266;DHT22;8749;47.076;15.412;2022-10-13T14:10:07;41.70;50.10
17266;DHT22;8749;47.076;15.412;2022-10-13T14:12:37;42.10;48.80
17266;DHT22;8749;47.076;15.412;2022-10-13T14:15:06;42.80;48.70
17266;DHT22;8749;47.076;15.412;2022-10-13T14:17:37;42.90;48.00
17266;DHT22;8749;47.076;15.412;2022-10-13T14:20:05;43.40;47.30
17266;DHT22;8749;47.076;15.412;2022-10-13T14:22:36;44.20;47.50
17266;DHT22;8749;47.076;15.412;2022-10-13T14:25:03;44.30;45.80
17266;DHT22;8749;47.076;15.412;2022-10-13T14:27:34;43.70;44.80
17266;DHT22;8749;47.076;15.412;2022-10-13T14:30:03;42.50;44.10
17266;DHT22;8749;47.076;15.412;2022-10-13T14:32:32;41.00;45.80
17266;DHT22;8749;47.076;15.412;2022-10-13T14:35:02;40.80;46.40
17266;DHT22;8749;47.076;15.412;2022-10-13T14:37:29;39.50;46.50
17266;DHT22;8749;47.076;15.412;2022-10-13T14:40:00;37.20;49.60
17266;DHT22;8749;47.076;15.412;2022-10-13T14:42:28;36.30;50.50
17266;DHT22;8749;47.076;15.412;2022-10-13T14:44:56;35.60;51.40
17266;DHT22;8749;47.076;15.412;2022-10-13T14:47:23;34.70;52.90
17266;DHT22;8749;47.076;15.412;2022-10-13T14:49:50;34.10;54.00
17266;DHT22;8749;47.076;15.412;2022-10-13T14:52:17;33.40;55.60
17266;DHT22;8749;47.076;15.412;2022-10-13T14:54:48;33.30;56.00
17266;DHT22;8749;47.076;15.412;2022-10-13T14:57:17;34.20;55.40
17266;DHT22;8749;47.076;15.412;2022-10-13T14:59:46;33.90;55.90
17266;DHT22;8749;47.076;15.412;2022-10-13T15:02:13;34.30;55.30
17266;DHT22;8749;47.076;15.412;2022-10-13T15:04:43;34.80;54.80
17266;DHT22;8749;47.076;15.412;2022-10-13T15:07:12;34.80;54.50
17266;DHT22;8749;47.076;15.412;2022-10-13T15:09:40;34.60;53.30
17266;DHT22;8749;47.076;15.412;2022-10-13T15:12:08;34.50;54.30
17266;DHT22;8749;47.076;15.412;2022-10-13T15:14:36;34.00;54.80
17266;DHT22;8749;47.076;15.412;2022-10-13T15:17:04;33.50;55.40
17266;DHT22;8749;47.076;15.412;2022-10-13T15:19:32;32.80;56.80
17266;DHT22;8749;47.076;15.412;2022-10-13T15:21:59;32.40;57.60
17266;DHT22;8749;47.076;15.412;2022-10-13T15:24:28;31.80;58.40
17266;DHT22;8749;47.076;15.412;2022-10-13T15:26:57;31.20;59.10
17266;DHT22;8749;47.076;15.412;2022-10-13T15:29:24;30.70;59.90
17266;DHT22;8749;47.076;15.412;2022-10-13T15:32:07;30.30;60.40
17266;DHT22;8749;47.076;15.412;2022-10-13T15:34:38;29.60;61.60
17266;DHT22;8749;47.076;15.412;2022-10-13T15:37:07;28.70;63.70
17266;DHT22;8749;47.076;15.412;2022-10-13T15:39:34;27.80;65.40
17266;DHT22;8749;47.076;15.412;2022-10-13T15:42:02;26.90;68.00
17266;DHT22;8749;47.076;15.412;2022-10-13T15:44:29;25.90;71.00
17266;DHT22;8749;47.076;15.412;2022-10-13T15:46:59;24.80;73.70
17266;DHT22;8749;47.076;15.412;2022-10-13T15:49:28;24.10;76.30
17266;DHT22;8749;47.076;15.412;2022-10-13T15:51:55;23.60;77.00
17266;DHT22;8749;47.076;15.412;2022-10-13T15:54:23;23.30;79.40
17266;DHT22;8749;47.076;15.412;2022-10-13T15:56:50;23.10;80.20
17266;DHT22;8749;47.076;15.412;2022-10-13T15:59:19;22.90;81.60
17266;DHT22;8749;47.076;15.412;2022-10-13T16:01:46;22.70;83.20
17266;DHT22;8749;47.076;15.412;2022-10-13T16:04:15;22.50;83.90